sensor_id;sensor_type;location;lat;lon;timestamp;P1;durP1;ratioP1;P2;durP2;ratioP2
1751;SDS011;873;47.696;8.068;2023-03-16T00:01:14;0.73;;;0.57;;
1751;SDS011;873;47.696;8.068;2023-03-16T00:03:39;1.80;;;0.77;;
1751;SDS011;873;47.696;8.068;2023-03-16T00:06:05;1.33;;;0.73;;
1751;SDS011;873;47.696;8.068;2023-03-16T00:08:30;2.60;;;0.90;;
1751;SDS011;873;47.696;8.068;2023-03-16T00:10:56;1.77;;;0.77;;
1751;SDS011;873;47.696;8.068;2023-03-16T00:13:23;2.67;;;0.93;;
1751;SDS011;873;47.696;8.068;2023-03-16T00:15:58;1.95;;;0.98;;
1751;SDS011;873;47.696;8.068;2023-03-16T00:18:25;1.48;;;0.93;;
1751;SDS011;873;47.696;8.068;2023-03-16T00:20:53;1.25;;;0.90;;
1751;SDS011;873;47.696;8.068;2023-03-16T00:23:20;0.95;;;0.60;;
1751;SDS011;873;47.696;8.068;2023-03-16T00:25:55;0.60;;;0.60;;
1751;SDS011;873;47.696;8.068;2023-03-16T00:28:23;2.42;;;1.40;;
1751;SDS011;873;47.696;8.068;2023-03-16T00:30:49;1.17;;;0.95;;
1751;SDS011;873;47.696;8.068;2023-03-16T00:33:15;3.27;;;0.80;;
1751;SDS011;873;47.696;8.068;2023-03-16T00:35:41;0.77;;;0.70;;
1751;SDS011;873;47.696;8.068;2023-03-16T00:38:16;3.10;;;0.77;;
1751;SDS011;873;47.696;8.068;2023-03-16T00:40:42;3.20;;;0.88;;
1751;SDS011;873;47.696;8.068;2023-03-16T00:43:08;1.08;;;1.00;;
1751;SDS011;873;47.696;8.068;2023-03-16T00:45:33;1.30;;;0.70;;
1751;SDS011;873;47.696;8.068;2023-03-16T00:48:00;3.78;;;0.90;;
1751;SDS011;873;47.696;8.068;2023-03-16T00:50:26;3.42;;;0.80;;
1751;SDS011;873;47.696;8.068;2023-03-16T00:52:52;2.20;;;0.77;;
1751;SDS011;873;47.696;8.068;2023-03-16T00:55:18;1.83;;;0.90;;
1751;SDS011;873;47.696;8.068;2023-03-16T00:57:44;1.15;;;0.73;;
1751;SDS011;873;47.696;8.068;2023-03-16T01:00:10;2.00;;;1.00;;
1751;SDS011;873;47.696;8.068;2023-03-16T01:02:39;1.45;;;0.90;;
1751;SDS011;873;47.696;8.068;2023-03-16T01:05:04;1.37;;;0.80;;
1751;SDS011;873;47.696;8.068;2023-03-16T01:07:30;3.25;;;0.80;;
1751;SDS011;873;47.696;8.068;2023-03-16T01:09:56;1.30;;;0.97;;
1751;SDS011;873;47.696;8.068;2023-03-16T01:12:22;1.27;;;0.87;;
1751;SDS011;873;47.696;8.068;2023-03-16T01:14:48;1.65;;;0.90;;
1751;SDS011;873;47.696;8.068;2023-03-16T01:17:14;2.17;;;1.17;;
1751;SDS011;873;47.696;8.068;2023-03-16T01:19:41;3.40;;;0.80;;
1751;SDS011;873;47.696;8.068;2023-03-16T01:22:08;1.00;;;0.90;;
1751;SDS011;873;47.696;8.068;2023-03-16T01:24:34;2.60;;;0.90;;
1751;SDS011;873;47.696;8.068;2023-03-16T01:27:00;1.17;;;1.00;;
1751;SDS011;873;47.696;8.068;2023-03-16T01:29:27;2.97;;;1.00;;
1751;SDS011;873;47.696;8.068;2023-03-16T01:31:52;1.83;;;1.03;;
1751;SDS011;873;47.696;8.068;2023-03-16T01:34:19;2.55;;;0.68;;
1751;SDS011;873;47.696;8.068;2023-03-16T01:36:46;5.77;;;0.90;;
1751;SDS011;873;47.696;8.068;2023-03-16T01:39:12;2.80;;;1.00;;
1751;SDS011;873;47.696;8.068;2023-03-16T01:41:38;1.58;;;1.10;;
1751;SDS011;873;47.696;8.068;2023-03-16T01:44:06;3.13;;;0.93;;
1751;SDS011;873;47.696;8.068;2023-03-16T01:46:35;2.17;;;0.80;;
1751;SDS011;873;47.696;8.068;2023-03-16T01:49:03;1.37;;;0.83;;
1751;SDS011;873;47.696;8.068;2023-03-16T01:54:27;1.00;;;0.95;;
1751;SDS011;873;47.696;8.068;2023-03-16T01:56:58;1.85;;;1.08;;
1751;SDS011;873;47.696;8.068;2023-03-16T01:59:30;1.38;;;0.93;;
1751;SDS011;873;47.696;8.068;2023-03-16T02:01:57;4.55;;;1.30;;
1751;SDS011;873;47.696;8.068;2023-03-16T02:06:59;2.22;;;1.10;;
1751;SDS011;873;47.696;8.068;2023-03-16T02:09:25;4.47;;;1.70;;
1751;SDS011;873;47.696;8.068;2023-03-16T02:11:51;3.50;;;1.30;;
1751;SDS011;873;47.696;8.068;2023-03-16T02:14:18;3.50;;;1.17;;
1751;SDS011;873;47.696;8.068;2023-03-16T02:16:43;1.33;;;1.03;;
1751;SDS011;873;47.696;8.068;2023-03-16T02:19:11;4.90;;;1.20;;
1751;SDS011;873;47.696;8.068;2023-03-16T02:24:27;1.50;;;0.98;;
1751;SDS011;873;47.696;8.068;2023-03-16T02:26:55;1.63;;;1.03;;
1751;SDS011;873;47.696;8.068;2023-03-16T02:32:16;1.70;;;1.00;;
1751;SDS011;873;47.696;8.068;2023-03-16T02:34:42;4.23;;;1.33;;
1751;SDS011;873;47.696;8.068;2023-03-16T02:37:08;1.90;;;0.80;;
1751;SDS011;873;47.696;8.068;2023-03-16T02:39:34;1.80;;;1.08;;
1751;SDS011;873;47.696;8.068;2023-03-16T02:42:08;2.50;;;0.97;;
1751;SDS011;873;47.696;8.068;2023-03-16T02:44:36;2.03;;;0.98;;
1751;SDS011;873;47.696;8.068;2023-03-16T02:47:06;3.47;;;1.05;;
1751;SDS011;873;47.696;8.068;2023-03-16T02:49:37;2.50;;;1.10;;
1751;SDS011;873;47.696;8.068;2023-03-16T02:52:05;3.45;;;1.10;;
1751;SDS011;873;47.696;8.068;2023-03-16T02:54:31;3.45;;;1.10;;
1751;SDS011;873;47.696;8.068;2023-03-16T02:56:57;2.00;;;1.20;;
1751;SDS011;873;47.696;8.068;2023-03-16T02:59:22;1.40;;;1.30;;
1751;SDS011;873;47.696;8.068;2023-03-16T03:01:48;3.27;;;1.17;;
1751;SDS011;873;47.696;8.068;2023-03-16T03:04:13;1.63;;;1.10;;
1751;SDS011;873;47.696;8.068;2023-03-16T03:06:39;2.60;;;0.93;;
1751;SDS011;873;47.696;8.068;2023-03-16T03:09:05;4.05;;;1.42;;
1751;SDS011;873;47.696;8.068;2023-03-16T03:11:31;2.50;;;1.25;;
1751;SDS011;873;47.696;8.068;2023-03-16T03:13:57;1.67;;;1.10;;
1751;SDS011;873;47.696;8.068;2023-03-16T03:16:23;1.83;;;1.07;;
1751;SDS011;873;47.696;8.068;2023-03-16T03:18:48;2.70;;;0.97;;
1751;SDS011;873;47.696;8.068;2023-03-16T03:21:17;2.13;;;1.15;;
1751;SDS011;873;47.696;8.068;2023-03-16T03:23:42;1.60;;;1.10;;
1751;SDS011;873;47.696;8.068;2023-03-16T03:26:10;2.53;;;1.20;;
1751;SDS011;873;47.696;8.068;2023-03-16T03:28:37;1.98;;;1.25;;
1751;SDS011;873;47.696;8.068;2023-03-16T03:31:02;2.10;;;1.27;;
1751;SDS011;873;47.696;8.068;2023-03-16T03:33:27;1.80;;;1.40;;
1751;SDS011;873;47.696;8.068;2023-03-16T03:35:54;2.53;;;1.07;;
1751;SDS011;873;47.696;8.068;2023-03-16T03:38:21;2.70;;;1.13;;
1751;SDS011;873;47.696;8.068;2023-03-16T03:40:48;2.42;;;1.17;;
1751;SDS011;873;47.696;8.068;2023-03-16T03:43:15;5.97;;;1.42;;
1751;SDS011;873;47.696;8.068;2023-03-16T03:45:41;2.33;;;1.20;;
1751;SDS011;873;47.696;8.068;2023-03-16T03:48:06;2.70;;;1.50;;
1751;SDS011;873;47.696;8.068;2023-03-16T03:50:32;2.57;;;1.40;;
1751;SDS011;873;47.696;8.068;2023-03-16T03:52:57;6.17;;;1.40;;
1751;SDS011;873;47.696;8.068;2023-03-16T03:55:23;3.77;;;1.13;;
1751;SDS011;873;47.696;8.068;2023-03-16T03:57:48;2.53;;;1.17;;
1751;SDS011;873;47.696;8.068;2023-03-16T04:00:14;1.40;;;1.10;;
1751;SDS011;873;47.696;8.068;2023-03-16T04:02:41;5.50;;;1.25;;
1751;SDS011;873;47.696;8.068;2023-03-16T04:05:06;2.67;;;1.30;;
1751;SDS011;873;47.696;8.068;2023-03-16T04:07:32;3.03;;;1.70;;
1751;SDS011;873;47.696;8.068;2023-03-16T04:09:58;4.33;;;1.60;;
1751;SDS011;873;47.696;8.068;2023-03-16T04:12:24;4.83;;;1.80;;
1751;SDS011;873;47.696;8.068;2023-03-16T04:14:49;2.07;;;1.50;;
1751;SDS011;873;47.696;8.068;2023-03-16T04:17:15;3.17;;;1.80;;
1751;SDS011;873;47.696;8.068;2023-03-16T04:19:41;4.57;;;1.92;;
1751;SDS011;873;47.696;8.068;2023-03-16T04:22:07;3.50;;;1.57;;
1751;SDS011;873;47.696;8.068;2023-03-16T04:24:33;2.00;;;1.73;;
1751;SDS011;873;47.696;8.068;2023-03-16T04:27:00;1.73;;;1.35;;
1751;SDS011;873;47.696;8.068;2023-03-16T04:29:27;2.15;;;1.58;;
1751;SDS011;873;47.696;8.068;2023-03-16T04:31:52;2.33;;;1.43;;
1751;SDS011;873;47.696;8.068;2023-03-16T04:34:19;2.23;;;1.40;;
1751;SDS011;873;47.696;8.068;2023-03-16T04:36:50;1.67;;;1.35;;
1751;SDS011;873;47.696;8.068;2023-03-16T04:39:17;3.72;;;2.08;;
1751;SDS011;873;47.696;8.068;2023-03-16T04:41:43;1.98;;;1.45;;
1751;SDS011;873;47.696;8.068;2023-03-16T04:44:09;2.63;;;1.40;;
1751;SDS011;873;47.696;8.068;2023-03-16T04:46:34;2.60;;;1.50;;
1751;SDS011;873;47.696;8.068;2023-03-16T04:49:00;3.93;;;3.63;;
1751;SDS011;873;47.696;8.068;2023-03-16T04:51:26;3.42;;;1.70;;
1751;SDS011;873;47.696;8.068;2023-03-16T04:53:52;3.20;;;1.93;;
1751;SDS011;873;47.696;8.068;2023-03-16T04:56:18;4.53;;;2.07;;
1751;SDS011;873;47.696;8.068;2023-03-16T04:58:44;2.77;;;1.73;;
1751;SDS011;873;47.696;8.068;2023-03-16T05:01:10;4.25;;;1.60;;
1751;SDS011;873;47.696;8.068;2023-03-16T05:03:37;3.40;;;1.98;;
1751;SDS011;873;47.696;8.068;2023-03-16T05:06:03;3.03;;;1.60;;
1751;SDS011;873;47.696;8.068;2023-03-16T05:08:29;2.45;;;1.90;;
1751;SDS011;873;47.696;8.068;2023-03-16T05:10:55;2.87;;;1.90;;
1751;SDS011;873;47.696;8.068;2023-03-16T05:13:22;4.30;;;1.98;;
1751;SDS011;873;47.696;8.068;2023-03-16T05:15:47;2.00;;;1.80;;
1751;SDS011;873;47.696;8.068;2023-03-16T05:18:13;3.20;;;2.37;;
1751;SDS011;873;47.696;8.068;2023-03-16T05:20:38;5.30;;;1.70;;
1751;SDS011;873;47.696;8.068;2023-03-16T05:23:05;5.38;;;1.90;;
1751;SDS011;873;47.696;8.068;2023-03-16T05:25:32;4.15;;;1.60;;
1751;SDS011;873;47.696;8.068;2023-03-16T05:27:58;3.85;;;1.95;;
1751;SDS011;873;47.696;8.068;2023-03-16T05:30:24;3.80;;;1.40;;
1751;SDS011;873;47.696;8.068;2023-03-16T05:32:50;4.40;;;1.83;;
1751;SDS011;873;47.696;8.068;2023-03-16T05:35:16;4.97;;;1.90;;
1751;SDS011;873;47.696;8.068;2023-03-16T05:37:42;3.00;;;1.43;;
1751;SDS011;873;47.696;8.068;2023-03-16T05:40:09;1.50;;;1.40;;
1751;SDS011;873;47.696;8.068;2023-03-16T05:42:41;5.03;;;1.70;;
1751;SDS011;873;47.696;8.068;2023-03-16T05:45:08;5.57;;;1.95;;
1751;SDS011;873;47.696;8.068;2023-03-16T05:47:34;6.97;;;1.80;;
1751;SDS011;873;47.696;8.068;2023-03-16T05:50:02;2.90;;;1.48;;
1751;SDS011;873;47.696;8.068;2023-03-16T05:52:29;5.38;;;1.85;;
1751;SDS011;873;47.696;8.068;2023-03-16T05:54:55;3.75;;;1.52;;
1751;SDS011;873;47.696;8.068;2023-03-16T05:57:20;4.00;;;1.73;;
1751;SDS011;873;47.696;8.068;2023-03-16T05:59:46;1.83;;;1.60;;
1751;SDS011;873;47.696;8.068;2023-03-16T06:02:12;1.50;;;1.38;;
1751;SDS011;873;47.696;8.068;2023-03-16T06:04:38;3.33;;;1.13;;
1751;SDS011;873;47.696;8.068;2023-03-16T06:07:03;1.60;;;1.07;;
1751;SDS011;873;47.696;8.068;2023-03-16T06:09:29;3.03;;;1.13;;
1751;SDS011;873;47.696;8.068;2023-03-16T06:11:55;2.70;;;1.50;;
1751;SDS011;873;47.696;8.068;2023-03-16T06:14:20;2.40;;;1.30;;
1751;SDS011;873;47.696;8.068;2023-03-16T06:16:47;3.20;;;1.02;;
1751;SDS011;873;47.696;8.068;2023-03-16T06:19:12;3.37;;;1.40;;
1751;SDS011;873;47.696;8.068;2023-03-16T06:21:38;1.53;;;1.10;;
1751;SDS011;873;47.696;8.068;2023-03-16T06:24:04;3.20;;;1.70;;
1751;SDS011;873;47.696;8.068;2023-03-16T06:26:31;1.45;;;1.00;;
1751;SDS011;873;47.696;8.068;2023-03-16T06:28:57;1.70;;;1.17;;
1751;SDS011;873;47.696;8.068;2023-03-16T06:31:22;1.20;;;1.07;;
1751;SDS011;873;47.696;8.068;2023-03-16T06:33:48;1.60;;;1.00;;
1751;SDS011;873;47.696;8.068;2023-03-16T06:36:13;1.73;;;1.00;;
1751;SDS011;873;47.696;8.068;2023-03-16T06:38:39;2.13;;;1.30;;
1751;SDS011;873;47.696;8.068;2023-03-16T06:41:05;1.80;;;1.27;;
1751;SDS011;873;47.696;8.068;2023-03-16T06:43:30;2.00;;;0.70;;
1751;SDS011;873;47.696;8.068;2023-03-16T06:45:56;1.30;;;0.90;;
1751;SDS011;873;47.696;8.068;2023-03-16T06:48:23;1.95;;;1.20;;
1751;SDS011;873;47.696;8.068;2023-03-16T06:50:48;2.33;;;1.20;;
1751;SDS011;873;47.696;8.068;2023-03-16T06:53:14;1.97;;;1.10;;
1751;SDS011;873;47.696;8.068;2023-03-16T06:55:39;2.00;;;1.27;;
1751;SDS011;873;47.696;8.068;2023-03-16T06:58:05;1.20;;;0.93;;
1751;SDS011;873;47.696;8.068;2023-03-16T07:00:31;0.73;;;0.70;;
1751;SDS011;873;47.696;8.068;2023-03-16T07:02:58;1.65;;;1.02;;
1751;SDS011;873;47.696;8.068;2023-03-16T07:05:24;4.20;;;1.35;;
1751;SDS011;873;47.696;8.068;2023-03-16T07:07:50;2.47;;;0.70;;
1751;SDS011;873;47.696;8.068;2023-03-16T07:10:16;2.13;;;0.87;;
1751;SDS011;873;47.696;8.068;2023-03-16T07:12:42;3.43;;;0.90;;
1751;SDS011;873;47.696;8.068;2023-03-16T07:15:08;2.77;;;1.03;;
1751;SDS011;873;47.696;8.068;2023-03-16T07:17:35;2.00;;;1.20;;
1751;SDS011;873;47.696;8.068;2023-03-16T07:20:01;1.63;;;0.90;;
1751;SDS011;873;47.696;8.068;2023-03-16T07:22:30;1.13;;;0.90;;
1751;SDS011;873;47.696;8.068;2023-03-16T07:24:56;1.43;;;1.07;;
1751;SDS011;873;47.696;8.068;2023-03-16T07:27:22;2.37;;;1.27;;
1751;SDS011;873;47.696;8.068;2023-03-16T07:29:49;1.13;;;1.00;;
1751;SDS011;873;47.696;8.068;2023-03-16T07:32:16;1.23;;;0.83;;
1751;SDS011;873;47.696;8.068;2023-03-16T07:34:42;1.67;;;1.00;;
1751;SDS011;873;47.696;8.068;2023-03-16T07:37:07;1.63;;;1.13;;
1751;SDS011;873;47.696;8.068;2023-03-16T07:39:34;1.57;;;1.00;;
1751;SDS011;873;47.696;8.068;2023-03-16T07:42:00;4.53;;;1.33;;
1751;SDS011;873;47.696;8.068;2023-03-16T07:44:26;1.37;;;0.80;;
1751;SDS011;873;47.696;8.068;2023-03-16T07:46:51;1.10;;;0.80;;
1751;SDS011;873;47.696;8.068;2023-03-16T07:49:17;0.97;;;0.83;;
1751;SDS011;873;47.696;8.068;2023-03-16T07:51:43;1.03;;;0.90;;
1751;SDS011;873;47.696;8.068;2023-03-16T07:54:08;1.00;;;0.90;;
1751;SDS011;873;47.696;8.068;2023-03-16T07:56:34;1.40;;;0.93;;
1751;SDS011;873;47.696;8.068;2023-03-16T07:59:00;1.20;;;1.00;;
1751;SDS011;873;47.696;8.068;2023-03-16T08:01:26;1.63;;;0.90;;
1751;SDS011;873;47.696;8.068;2023-03-16T08:03:52;1.00;;;0.90;;
1751;SDS011;873;47.696;8.068;2023-03-16T08:06:18;1.47;;;0.93;;
1751;SDS011;873;47.696;8.068;2023-03-16T08:08:43;1.63;;;0.80;;
1751;SDS011;873;47.696;8.068;2023-03-16T08:11:09;2.73;;;1.03;;
1751;SDS011;873;47.696;8.068;2023-03-16T08:13:35;1.60;;;0.97;;
1751;SDS011;873;47.696;8.068;2023-03-16T08:16:01;1.70;;;1.10;;
1751;SDS011;873;47.696;8.068;2023-03-16T08:18:27;1.37;;;0.73;;
1751;SDS011;873;47.696;8.068;2023-03-16T08:20:55;0.70;;;0.70;;
1751;SDS011;873;47.696;8.068;2023-03-16T08:23:22;1.70;;;0.97;;
1751;SDS011;873;47.696;8.068;2023-03-16T08:25:52;1.63;;;0.87;;
1751;SDS011;873;47.696;8.068;2023-03-16T08:28:18;1.23;;;0.80;;
1751;SDS011;873;47.696;8.068;2023-03-16T08:30:47;1.57;;;0.87;;
1751;SDS011;873;47.696;8.068;2023-03-16T08:33:15;2.37;;;0.83;;
1751;SDS011;873;47.696;8.068;2023-03-16T08:35:42;1.70;;;0.70;;
1751;SDS011;873;47.696;8.068;2023-03-16T08:38:09;1.00;;;0.70;;
1751;SDS011;873;47.696;8.068;2023-03-16T08:40:36;2.50;;;0.87;;
1751;SDS011;873;47.696;8.068;2023-03-16T08:43:02;1.07;;;0.80;;
1751;SDS011;873;47.696;8.068;2023-03-16T08:45:28;1.93;;;0.93;;
1751;SDS011;873;47.696;8.068;2023-03-16T08:47:54;1.57;;;0.90;;
1751;SDS011;873;47.696;8.068;2023-03-16T08:50:20;1.43;;;0.97;;
1751;SDS011;873;47.696;8.068;2023-03-16T08:52:46;1.60;;;1.10;;
1751;SDS011;873;47.696;8.068;2023-03-16T08:55:13;1.30;;;1.07;;
1751;SDS011;873;47.696;8.068;2023-03-16T08:57:39;2.63;;;0.80;;
1751;SDS011;873;47.696;8.068;2023-03-16T09:00:06;1.73;;;1.03;;
1751;SDS011;873;47.696;8.068;2023-03-16T09:02:40;2.37;;;0.80;;
1751;SDS011;873;47.696;8.068;2023-03-16T09:05:07;1.67;;;1.30;;
1751;SDS011;873;47.696;8.068;2023-03-16T09:07:34;2.03;;;1.00;;
1751;SDS011;873;47.696;8.068;2023-03-16T09:10:01;2.07;;;1.20;;
1751;SDS011;873;47.696;8.068;2023-03-16T09:12:30;3.17;;;0.97;;
1751;SDS011;873;47.696;8.068;2023-03-16T09:14:56;1.53;;;1.00;;
1751;SDS011;873;47.696;8.068;2023-03-16T09:17:22;2.33;;;1.20;;
1751;SDS011;873;47.696;8.068;2023-03-16T09:19:48;5.27;;;1.17;;
1751;SDS011;873;47.696;8.068;2023-03-16T09:22:13;1.13;;;0.83;;
1751;SDS011;873;47.696;8.068;2023-03-16T09:24:39;2.80;;;0.87;;
1751;SDS011;873;47.696;8.068;2023-03-16T09:27:05;1.10;;;0.80;;
1751;SDS011;873;47.696;8.068;2023-03-16T09:29:31;1.23;;;0.83;;
1751;SDS011;873;47.696;8.068;2023-03-16T09:31:58;0.90;;;0.67;;
1751;SDS011;873;47.696;8.068;2023-03-16T09:34:23;1.33;;;0.90;;
1751;SDS011;873;47.696;8.068;2023-03-16T09:36:49;2.87;;;0.93;;
1751;SDS011;873;47.696;8.068;2023-03-16T09:39:14;0.73;;;0.70;;
1751;SDS011;873;47.696;8.068;2023-03-16T09:41:43;3.37;;;1.20;;
1751;SDS011;873;47.696;8.068;2023-03-16T09:44:23;1.17;;;0.90;;
1751;SDS011;873;47.696;8.068;2023-03-16T09:46:59;1.40;;;0.90;;
1751;SDS011;873;47.696;8.068;2023-03-16T09:49:27;1.37;;;0.90;;
1751;SDS011;873;47.696;8.068;2023-03-16T09:57:52;1.20;;;0.87;;
1751;SDS011;873;47.696;8.068;2023-03-16T10:00:26;1.03;;;0.80;;
1751;SDS011;873;47.696;8.068;2023-03-16T10:05:43;1.83;;;1.00;;
1751;SDS011;873;47.696;8.068;2023-03-16T10:08:15;1.57;;;0.87;;
1751;SDS011;873;47.696;8.068;2023-03-16T10:13:29;2.00;;;1.00;;
1751;SDS011;873;47.696;8.068;2023-03-16T10:16:02;2.07;;;1.10;;
1751;SDS011;873;47.696;8.068;2023-03-16T10:18:34;1.60;;;1.00;;
1751;SDS011;873;47.696;8.068;2023-03-16T10:21:09;1.97;;;0.97;;
1751;SDS011;873;47.696;8.068;2023-03-16T10:23:37;2.23;;;1.07;;
1751;SDS011;873;47.696;8.068;2023-03-16T10:26:05;1.87;;;1.10;;
1751;SDS011;873;47.696;8.068;2023-03-16T10:28:43;1.97;;;1.17;;
1751;SDS011;873;47.696;8.068;2023-03-16T10:31:10;1.37;;;1.00;;
1751;SDS011;873;47.696;8.068;2023-03-16T10:33:38;1.53;;;1.30;;
1751;SDS011;873;47.696;8.068;2023-03-16T10:38:56;2.90;;;1.30;;
1751;SDS011;873;47.696;8.068;2023-03-16T10:41:27;2.50;;;1.37;;
1751;SDS011;873;47.696;8.068;2023-03-16T10:46:49;3.23;;;1.17;;
1751;SDS011;873;47.696;8.068;2023-03-16T10:49:24;2.03;;;1.20;;
1751;SDS011;873;47.696;8.068;2023-03-16T10:51:53;1.60;;;1.27;;
1751;SDS011;873;47.696;8.068;2023-03-16T10:54:30;2.23;;;1.30;;
1751;SDS011;873;47.696;8.068;2023-03-16T10:56:59;2.80;;;1.37;;
1751;SDS011;873;47.696;8.068;2023-03-16T10:59:38;1.63;;;1.40;;
1751;SDS011;873;47.696;8.068;2023-03-16T11:02:20;2.20;;;1.10;;
1751;SDS011;873;47.696;8.068;2023-03-16T11:04:49;1.70;;;1.37;;
1751;SDS011;873;47.696;8.068;2023-03-16T11:07:16;1.40;;;1.30;;
1751;SDS011;873;47.696;8.068;2023-03-16T11:09:43;2.30;;;1.60;;
1751;SDS011;873;47.696;8.068;2023-03-16T11:12:13;2.40;;;1.30;;
1751;SDS011;873;47.696;8.068;2023-03-16T11:14:48;2.40;;;1.33;;
1751;SDS011;873;47.696;8.068;2023-03-16T11:17:15;2.67;;;1.67;;
1751;SDS011;873;47.696;8.068;2023-03-16T11:19:51;2.47;;;1.60;;
1751;SDS011;873;47.696;8.068;2023-03-16T11:22:20;1.83;;;1.30;;
1751;SDS011;873;47.696;8.068;2023-03-16T11:27:25;1.40;;;1.30;;
1751;SDS011;873;47.696;8.068;2023-03-16T11:32:42;2.20;;;1.77;;
1751;SDS011;873;47.696;8.068;2023-03-16T11:35:16;1.73;;;1.40;;
1751;SDS011;873;47.696;8.068;2023-03-16T11:45:44;1.40;;;1.10;;
1751;SDS011;873;47.696;8.068;2023-03-16T11:48:17;1.60;;;1.27;;
1751;SDS011;873;47.696;8.068;2023-03-16T11:53:29;1.40;;;1.23;;
1751;SDS011;873;47.696;8.068;2023-03-16T11:56:30;1.30;;;1.00;;
1751;SDS011;873;47.696;8.068;2023-03-16T11:59:00;1.37;;;1.10;;
1751;SDS011;873;47.696;8.068;2023-03-16T12:04:55;1.80;;;1.10;;
1751;SDS011;873;47.696;8.068;2023-03-16T12:15:40;1.30;;;1.10;;
1751;SDS011;873;47.696;8.068;2023-03-16T12:18:17;2.17;;;1.10;;
1751;SDS011;873;47.696;8.068;2023-03-16T12:20:57;1.47;;;1.17;;
1751;SDS011;873;47.696;8.068;2023-03-16T12:23:28;1.50;;;1.20;;
1751;SDS011;873;47.696;8.068;2023-03-16T12:25:56;1.27;;;1.00;;
1751;SDS011;873;47.696;8.068;2023-03-16T12:28:25;1.33;;;1.10;;
1751;SDS011;873;47.696;8.068;2023-03-16T12:38:59;3.13;;;1.10;;
1751;SDS011;873;47.696;8.068;2023-03-16T12:44:14;1.90;;;1.20;;
1751;SDS011;873;47.696;8.068;2023-03-16T12:46:47;2.77;;;1.00;;
1751;SDS011;873;47.696;8.068;2023-03-16T12:49:24;1.70;;;1.03;;
1751;SDS011;873;47.696;8.068;2023-03-16T12:51:58;2.07;;;1.10;;
1751;SDS011;873;47.696;8.068;2023-03-16T12:54:26;1.67;;;1.10;;
1751;SDS011;873;47.696;8.068;2023-03-16T12:56:53;1.40;;;1.23;;
1751;SDS011;873;47.696;8.068;2023-03-16T12:59:25;1.50;;;0.80;;
1751;SDS011;873;47.696;8.068;2023-03-16T13:02:01;1.10;;;1.00;;
1751;SDS011;873;47.696;8.068;2023-03-16T13:04:30;1.20;;;1.07;;
1751;SDS011;873;47.696;8.068;2023-03-16T13:07:09;2.10;;;0.90;;
1751;SDS011;873;47.696;8.068;2023-03-16T13:09:58;1.58;;;0.85;;
1751;SDS011;873;47.696;8.068;2023-03-16T13:12:29;3.03;;;1.00;;
1751;SDS011;873;47.696;8.068;2023-03-16T13:15:01;1.30;;;0.90;;
1751;SDS011;873;47.696;8.068;2023-03-16T13:28:41;1.40;;;1.30;;
1751;SDS011;873;47.696;8.068;2023-03-16T13:31:24;1.70;;;1.07;;
1751;SDS011;873;47.696;8.068;2023-03-16T13:33:52;2.20;;;0.93;;
1751;SDS011;873;47.696;8.068;2023-03-16T13:36:20;1.90;;;0.90;;
1751;SDS011;873;47.696;8.068;2023-03-16T13:38:55;2.23;;;1.40;;
1751;SDS011;873;47.696;8.068;2023-03-16T13:41:22;1.73;;;1.30;;
1751;SDS011;873;47.696;8.068;2023-03-16T13:43:48;1.87;;;1.30;;
1751;SDS011;873;47.696;8.068;2023-03-16T13:46:16;2.27;;;1.20;;
1751;SDS011;873;47.696;8.068;2023-03-16T13:48:43;2.90;;;1.33;;
1751;SDS011;873;47.696;8.068;2023-03-16T13:51:12;1.50;;;1.10;;
1751;SDS011;873;47.696;8.068;2023-03-16T13:53:40;1.30;;;1.00;;
1751;SDS011;873;47.696;8.068;2023-03-16T13:56:06;1.50;;;1.27;;
1751;SDS011;873;47.696;8.068;2023-03-16T13:58:37;1.77;;;1.10;;
1751;SDS011;873;47.696;8.068;2023-03-16T14:01:10;1.70;;;1.30;;
1751;SDS011;873;47.696;8.068;2023-03-16T14:03:54;1.20;;;1.10;;
1751;SDS011;873;47.696;8.068;2023-03-16T14:06:22;1.77;;;1.20;;
1751;SDS011;873;47.696;8.068;2023-03-16T14:08:59;3.70;;;1.20;;
1751;SDS011;873;47.696;8.068;2023-03-16T14:11:27;3.10;;;1.20;;
1751;SDS011;873;47.696;8.068;2023-03-16T14:13:54;2.50;;;1.30;;
1751;SDS011;873;47.696;8.068;2023-03-16T14:16:22;2.27;;;1.47;;
1751;SDS011;873;47.696;8.068;2023-03-16T14:18:53;1.40;;;1.30;;
1751;SDS011;873;47.696;8.068;2023-03-16T14:21:26;1.40;;;1.30;;
1751;SDS011;873;47.696;8.068;2023-03-16T14:26:38;1.50;;;1.37;;
1751;SDS011;873;47.696;8.068;2023-03-16T14:29:26;3.03;;;1.60;;
1751;SDS011;873;47.696;8.068;2023-03-16T14:31:54;3.37;;;1.30;;
1751;SDS011;873;47.696;8.068;2023-03-16T14:34:25;2.87;;;1.33;;
1751;SDS011;873;47.696;8.068;2023-03-16T14:37:03;2.77;;;1.50;;
1751;SDS011;873;47.696;8.068;2023-03-16T14:39:31;1.77;;;1.40;;
1751;SDS011;873;47.696;8.068;2023-03-16T14:42:00;2.27;;;1.37;;
1751;SDS011;873;47.696;8.068;2023-03-16T14:44:29;1.77;;;1.30;;
1751;SDS011;873;47.696;8.068;2023-03-16T14:46:56;1.63;;;1.30;;
1751;SDS011;873;47.696;8.068;2023-03-16T14:49:24;1.60;;;1.10;;
1751;SDS011;873;47.696;8.068;2023-03-16T14:54:57;2.07;;;1.50;;
1751;SDS011;873;47.696;8.068;2023-03-16T14:57:23;1.17;;;1.07;;
1751;SDS011;873;47.696;8.068;2023-03-16T14:59:50;1.10;;;1.00;;
1751;SDS011;873;47.696;8.068;2023-03-16T15:02:18;1.97;;;1.30;;
1751;SDS011;873;47.696;8.068;2023-03-16T15:04:54;4.03;;;1.20;;
1751;SDS011;873;47.696;8.068;2023-03-16T15:07:28;1.70;;;1.10;;
1751;SDS011;873;47.696;8.068;2023-03-16T15:09:58;2.47;;;1.30;;
1751;SDS011;873;47.696;8.068;2023-03-16T15:12:30;1.87;;;1.20;;
1751;SDS011;873;47.696;8.068;2023-03-16T15:14:56;2.67;;;1.20;;
1751;SDS011;873;47.696;8.068;2023-03-16T15:17:41;1.30;;;1.20;;
1751;SDS011;873;47.696;8.068;2023-03-16T15:20:09;1.87;;;1.27;;
1751;SDS011;873;47.696;8.068;2023-03-16T15:22:40;2.87;;;1.40;;
1751;SDS011;873;47.696;8.068;2023-03-16T15:25:17;2.00;;;1.50;;
1751;SDS011;873;47.696;8.068;2023-03-16T15:27:46;1.80;;;1.23;;
1751;SDS011;873;47.696;8.068;2023-03-16T15:30:14;2.43;;;1.40;;
1751;SDS011;873;47.696;8.068;2023-03-16T15:32:41;2.27;;;1.40;;
1751;SDS011;873;47.696;8.068;2023-03-16T15:35:06;2.43;;;1.30;;
1751;SDS011;873;47.696;8.068;2023-03-16T15:37:32;2.90;;;1.50;;
1751;SDS011;873;47.696;8.068;2023-03-16T15:39:58;3.37;;;1.37;;
1751;SDS011;873;47.696;8.068;2023-03-16T15:42:23;2.10;;;1.43;;
1751;SDS011;873;47.696;8.068;2023-03-16T15:44:51;2.13;;;1.40;;
1751;SDS011;873;47.696;8.068;2023-03-16T15:47:17;3.23;;;1.37;;
1751;SDS011;873;47.696;8.068;2023-03-16T15:49:42;1.50;;;1.30;;
1751;SDS011;873;47.696;8.068;2023-03-16T15:52:16;2.10;;;1.47;;
1751;SDS011;873;47.696;8.068;2023-03-16T15:54:46;1.50;;;1.40;;
1751;SDS011;873;47.696;8.068;2023-03-16T15:57:12;3.53;;;1.63;;
1751;SDS011;873;47.696;8.068;2023-03-16T15:59:38;1.80;;;1.43;;
1751;SDS011;873;47.696;8.068;2023-03-16T16:04:53;3.33;;;1.97;;
1751;SDS011;873;47.696;8.068;2023-03-16T16:07:19;2.77;;;1.67;;
1751;SDS011;873;47.696;8.068;2023-03-16T16:09:44;4.73;;;2.20;;
1751;SDS011;873;47.696;8.068;2023-03-16T16:12:11;2.67;;;1.80;;
1751;SDS011;873;47.696;8.068;2023-03-16T16:14:38;3.83;;;2.10;;
1751;SDS011;873;47.696;8.068;2023-03-16T16:17:11;2.33;;;1.97;;
1751;SDS011;873;47.696;8.068;2023-03-16T16:19:42;2.40;;;1.63;;
1751;SDS011;873;47.696;8.068;2023-03-16T16:22:11;3.33;;;2.00;;
1751;SDS011;873;47.696;8.068;2023-03-16T16:24:37;2.53;;;1.97;;
1751;SDS011;873;47.696;8.068;2023-03-16T16:27:02;1.93;;;1.43;;
1751;SDS011;873;47.696;8.068;2023-03-16T16:29:29;4.20;;;2.00;;
1751;SDS011;873;47.696;8.068;2023-03-16T16:31:58;3.77;;;2.07;;
1751;SDS011;873;47.696;8.068;2023-03-16T16:34:24;1.93;;;1.73;;
1751;SDS011;873;47.696;8.068;2023-03-16T16:36:52;3.00;;;1.70;;
1751;SDS011;873;47.696;8.068;2023-03-16T16:39:18;2.40;;;1.80;;
1751;SDS011;873;47.696;8.068;2023-03-16T16:41:44;2.77;;;1.57;;
1751;SDS011;873;47.696;8.068;2023-03-16T16:44:18;5.93;;;2.30;;
1751;SDS011;873;47.696;8.068;2023-03-16T16:46:45;4.77;;;1.47;;
1751;SDS011;873;47.696;8.068;2023-03-16T16:49:14;5.80;;;2.00;;
1751;SDS011;873;47.696;8.068;2023-03-16T16:51:48;3.63;;;1.97;;
1751;SDS011;873;47.696;8.068;2023-03-16T16:54:17;2.60;;;1.90;;
1751;SDS011;873;47.696;8.068;2023-03-16T16:56:45;3.10;;;1.80;;
1751;SDS011;873;47.696;8.068;2023-03-16T17:01:48;3.60;;;2.20;;
1751;SDS011;873;47.696;8.068;2023-03-16T17:04:16;3.33;;;1.80;;